createdAt,value
2023-03-22T00:02:16.465Z,18.10
2023-03-22T00:04:44.487Z,17.30
2023-03-22T00:07:12.747Z,16.10
2023-03-22T00:09:41.069Z,15.50
2023-03-22T00:12:09.139Z,18.20
2023-03-22T00:14:37.396Z,18.70
2023-03-22T00:17:05.527Z,17.40
2023-03-22T00:19:34.114Z,16.80
2023-03-22T00:22:04.014Z,18.60
2023-03-22T00:24:32.181Z,19.70
2023-03-22T00:27:00.961Z,19.10
2023-03-22T00:29:29.177Z,20.00
2023-03-22T00:31:57.530Z,19.30
2023-03-22T00:34:27.162Z,19.40
2023-03-22T00:36:56.436Z,18.20
2023-03-22T00:39:24.627Z,18.00
2023-03-22T00:41:52.640Z,20.60
2023-03-22T00:44:21.064Z,22.10
2023-03-22T00:46:49.268Z,23.40
2023-03-22T00:49:17.355Z,24.10
2023-03-22T00:51:45.404Z,23.40
2023-03-22T00:54:13.781Z,24.40
2023-03-22T00:56:45.610Z,26.10
2023-03-22T00:59:15.059Z,26.60
2023-03-22T01:01:43.970Z,24.90
2023-03-22T01:04:18.311Z,24.50
2023-03-22T01:06:47.319Z,23.30
2023-03-22T01:09:15.558Z,24.10
2023-03-22T01:11:44.008Z,22.30
2023-03-22T01:14:13.977Z,22.20
2023-03-22T01:16:42.158Z,22.70
2023-03-22T01:19:10.684Z,21.80
2023-03-22T01:21:39.270Z,20.20
2023-03-22T01:24:07.362Z,20.70
2023-03-22T01:26:36.018Z,20.70
2023-03-22T01:29:04.028Z,20.20
2023-03-22T01:31:32.041Z,21.50
2023-03-22T01:34:00.174Z,19.60
2023-03-22T01:36:28.690Z,19.00
2023-03-22T01:38:57.167Z,18.20
2023-03-22T01:41:25.704Z,18.30
2023-03-22T01:44:12.817Z,17.90
2023-03-22T01:46:42.873Z,17.20
2023-03-22T01:49:19.664Z,16.60
2023-03-22T01:51:51.159Z,15.00
2023-03-22T01:54:44.793Z,16.40
2023-03-22T01:57:39.660Z,15.40
2023-03-22T02:00:15.776Z,16.30
2023-03-22T02:03:07.533Z,16.40
2023-03-22T02:05:44.081Z,15.20
2023-03-22T02:08:15.279Z,14.20
2023-03-22T02:11:03.412Z,13.10
2023-03-22T02:13:48.853Z,14.80
2023-03-22T02:17:10.886Z,14.30
2023-03-22T02:20:11.780Z,14.40
2023-03-22T02:23:06.017Z,12.80
2023-03-22T02:25:34.106Z,12.40
2023-03-22T02:28:33.688Z,13.40
2023-03-22T02:31:24.675Z,13.60
2023-03-22T02:33:52.901Z,12.40
2023-03-22T02:36:53.974Z,12.90
2023-03-22T02:39:29.864Z,12.60
2023-03-22T02:42:10.390Z,11.40
2023-03-22T02:44:43.012Z,13.30
2023-03-22T02:47:22.539Z,12.30
2023-03-22T02:49:58.803Z,12.00
2023-03-22T02:52:36.664Z,10.90
2023-03-22T02:55:20.697Z,12.00
2023-03-22T02:58:31.154Z,10.80
2023-03-22T03:01:07.445Z,11.70
2023-03-22T03:03:38.016Z,11.80
2023-03-22T03:06:10.991Z,10.70
2023-03-22T03:08:40.396Z,11.40
2023-03-22T03:11:09.188Z,10.70
2023-03-22T03:13:37.423Z,10.50
2023-03-22T03:16:08.181Z,9.60
2023-03-22T03:18:49.101Z,9.80
2023-03-22T03:21:30.213Z,9.40
2023-03-22T03:24:15.573Z,9.40
2023-03-22T03:26:59.462Z,9.40
2023-03-22T03:29:54.578Z,9.00
2023-03-22T03:32:31.820Z,7.60
2023-03-22T03:35:07.225Z,7.80
2023-03-22T03:37:45.108Z,7.70
2023-03-22T03:40:18.500Z,7.30
2023-03-22T03:42:52.980Z,7.00
2023-03-22T03:45:22.270Z,7.50
2023-03-22T03:47:57.288Z,7.00
2023-03-22T03:50:27.026Z,7.50
2023-03-22T03:52:56.115Z,7.10
2023-03-22T03:55:26.833Z,8.10
2023-03-22T03:57:54.905Z,7.00
2023-03-22T04:00:23.183Z,7.30
2023-03-22T04:03:30.799Z,6.40
2023-03-22T04:06:01.521Z,6.70
2023-03-22T04:08:30.191Z,7.10
2023-03-22T04:10:58.786Z,6.80
2023-03-22T04:13:26.748Z,5.40
2023-03-22T04:15:57.555Z,6.70
2023-03-22T04:18:29.950Z,6.80
2023-03-22T04:20:58.488Z,6.20
2023-03-22T04:23:27.765Z,6.60
2023-03-22T04:25:59.824Z,5.70
2023-03-22T04:28:38.191Z,6.10
2023-03-22T04:31:07.181Z,6.60
2023-03-22T04:34:05.644Z,5.90
2023-03-22T04:36:50.014Z,6.10
2023-03-22T04:39:38.786Z,5.90
2023-03-22T04:42:32.927Z,5.70
2023-03-22T04:45:21.480Z,6.30
2023-03-22T04:47:55.038Z,6.70
2023-03-22T04:50:23.681Z,7.50
2023-03-22T04:52:54.433Z,6.80
2023-03-22T04:55:22.609Z,7.00
2023-03-22T04:57:51.286Z,6.60
2023-03-22T05:00:19.741Z,6.90
2023-03-22T05:02:48.720Z,7.20
2023-03-22T05:05:27.683Z,6.80
2023-03-22T05:07:56.573Z,6.60
2023-03-22T05:10:25.305Z,6.80
2023-03-22T05:12:54.778Z,6.50
2023-03-22T05:15:25.663Z,6.60
2023-03-22T05:17:55.856Z,7.80
2023-03-22T05:20:25.031Z,8.80
2023-03-22T05:23:10.383Z,7.80
2023-03-22T05:25:39.686Z,7.10
2023-03-22T05:28:08.793Z,7.70
2023-03-22T05:30:46.678Z,6.30
2023-03-22T05:33:41.789Z,6.40
2023-03-22T05:36:14.000Z,5.70
2023-03-22T05:38:59.457Z,6.50
2023-03-22T05:41:27.661Z,6.10
2023-03-22T05:43:56.053Z,5.80
2023-03-22T05:46:24.116Z,6.90
2023-03-22T05:49:24.946Z,6.20
2023-03-22T05:51:52.900Z,6.40
2023-03-22T05:54:22.014Z,6.40
2023-03-22T05:56:54.070Z,5.80
2023-03-22T05:59:23.678Z,5.30
2023-03-22T06:01:52.183Z,5.20
2023-03-22T06:04:22.973Z,5.00
2023-03-22T06:07:17.146Z,4.10
2023-03-22T06:10:01.892Z,3.50
2023-03-22T06:12:31.568Z,4.00
2023-03-22T06:15:16.531Z,3.70
2023-03-22T06:18:00.740Z,4.20
2023-03-22T06:20:31.372Z,4.10
2023-03-22T06:23:02.801Z,4.40
2023-03-22T06:25:30.812Z,4.00
2023-03-22T06:27:59.240Z,4.40
2023-03-22T06:30:27.462Z,3.70
2023-03-22T06:33:07.180Z,3.00
2023-03-22T06:35:37.802Z,3.30
2023-03-22T06:38:05.912Z,4.10
2023-03-22T06:40:36.886Z,3.90
2023-03-22T06:43:07.235Z,4.20
2023-03-22T06:45:36.649Z,3.10
2023-03-22T06:48:05.602Z,3.50
2023-03-22T06:50:54.101Z,4.20
2023-03-22T06:53:33.843Z,4.10
2023-03-22T06:56:03.678Z,2.80
2023-03-22T06:58:35.001Z,2.50
2023-03-22T07:01:03.082Z,4.00
2023-03-22T07:03:32.503Z,3.50
2023-03-22T07:06:12.290Z,4.20
2023-03-22T07:08:43.111Z,4.70
2023-03-22T07:11:11.492Z,6.00
2023-03-22T07:13:39.626Z,6.40
2023-03-22T07:16:11.598Z,6.70
2023-03-22T07:18:43.645Z,6.30
2023-03-22T07:21:12.164Z,9.00
2023-03-22T07:23:41.439Z,7.70
2023-03-22T07:26:13.595Z,6.50
2023-03-22T07:28:44.833Z,8.10
2023-03-22T07:31:14.901Z,7.80
2023-03-22T07:34:00.794Z,13.70
2023-03-22T07:36:30.964Z,15.40
2023-03-22T07:38:59.033Z,11.10
2023-03-22T07:41:33.425Z,8.80
2023-03-22T07:44:20.307Z,6.70
2023-03-22T07:46:57.822Z,7.60
2023-03-22T07:49:36.105Z,7.50
2023-03-22T07:52:08.824Z,6.90
2023-03-22T07:54:36.686Z,6.40
2023-03-22T07:57:06.914Z,6.40
2023-03-22T07:59:40.016Z,6.70
2023-03-22T08:02:12.187Z,6.40
2023-03-22T08:04:45.993Z,5.10
2023-03-22T08:07:32.810Z,5.60
2023-03-22T08:10:01.499Z,6.00
2023-03-22T08:12:29.766Z,7.20
2023-03-22T08:15:05.630Z,5.30
2023-03-22T08:17:34.558Z,5.80
2023-03-22T08:20:09.076Z,6.60
2023-03-22T08:22:46.154Z,5.60
2023-03-22T08:25:21.244Z,5.50
2023-03-22T08:27:49.760Z,6.10
2023-03-22T08:30:18.396Z,5.80
2023-03-22T08:32:46.549Z,5.40
2023-03-22T08:35:14.812Z,5.70
2023-03-22T08:37:42.956Z,5.40
2023-03-22T08:40:11.914Z,7.40
2023-03-22T08:42:47.833Z,7.60
2023-03-22T08:45:16.377Z,6.50
2023-03-22T08:47:50.033Z,6.80
2023-03-22T08:50:19.233Z,5.70
2023-03-22T08:52:53.813Z,6.50
2023-03-22T08:55:35.609Z,6.10
2023-03-22T08:58:13.895Z,6.30
2023-03-22T09:00:51.071Z,6.60
2023-03-22T09:03:43.509Z,6.40
2023-03-22T09:06:11.729Z,6.20
2023-03-22T09:08:42.213Z,7.30
2023-03-22T09:11:17.806Z,5.90
2023-03-22T09:13:47.706Z,5.20
2023-03-22T09:16:17.243Z,6.90
2023-03-22T09:18:46.351Z,6.10
2023-03-22T09:21:17.863Z,6.40
2023-03-22T09:24:00.648Z,6.20
2023-03-22T09:26:37.794Z,6.10
2023-03-22T09:29:07.430Z,5.90
2023-03-22T09:31:35.432Z,6.90
2023-03-22T09:34:16.493Z,5.70
2023-03-22T09:36:44.624Z,6.30
2023-03-22T09:39:12.931Z,6.30
2023-03-22T09:41:55.006Z,6.30
2023-03-22T09:44:34.204Z,6.90
2023-03-22T09:47:05.925Z,7.00
2023-03-22T09:49:52.571Z,7.10
2023-03-22T09:52:22.082Z,7.20
2023-03-22T09:54:52.760Z,6.80
2023-03-22T09:57:37.642Z,8.40
2023-03-22T10:00:21.020Z,6.30
2023-03-22T10:03:18.614Z,6.50
2023-03-22T10:05:56.021Z,7.10
2023-03-22T10:08:50.927Z,7.40
2023-03-22T10:11:45.011Z,8.30
2023-03-22T10:14:41.993Z,6.50
2023-03-22T10:17:17.540Z,7.40
2023-03-22T10:20:01.218Z,6.30
2023-03-22T10:22:37.053Z,5.90
2023-03-22T10:25:09.933Z,7.70
2023-03-22T10:30:23.091Z,6.20
2023-03-22T10:33:16.610Z,6.20
2023-03-22T10:35:45.894Z,6.40
2023-03-22T10:38:23.733Z,6.20
2023-03-22T10:40:55.923Z,7.00
2023-03-22T10:43:31.077Z,6.00
2023-03-22T10:46:02.654Z,4.30
2023-03-22T10:48:41.029Z,4.90
2023-03-22T10:51:18.455Z,4.60
2023-03-22T10:53:49.844Z,5.50
2023-03-22T10:56:21.092Z,6.80
2023-03-22T10:58:50.625Z,5.70
2023-03-22T11:01:29.364Z,5.50
2023-03-22T11:04:12.435Z,5.60
2023-03-22T11:06:54.734Z,6.30
2023-03-22T11:09:25.362Z,5.60
2023-03-22T11:12:03.935Z,5.20
2023-03-22T11:14:38.004Z,5.20
2023-03-22T11:17:06.477Z,5.60
2023-03-22T11:19:37.938Z,5.90
2023-03-22T11:22:37.896Z,7.10
2023-03-22T11:25:30.658Z,7.40
2023-03-22T11:28:04.980Z,7.10
2023-03-22T11:30:34.559Z,11.30
2023-03-22T11:33:08.445Z,6.80
2023-03-22T11:35:38.804Z,6.30
2023-03-22T11:38:07.734Z,6.50
2023-03-22T11:40:37.234Z,5.90
2023-03-22T11:43:23.354Z,6.20
2023-03-22T11:45:56.630Z,6.30
2023-03-22T11:48:28.219Z,5.90
2023-03-22T11:51:05.839Z,5.50
2023-03-22T11:53:37.321Z,7.60
2023-03-22T11:56:07.824Z,6.00
2023-03-22T11:58:41.913Z,6.30
2023-03-22T12:01:33.083Z,6.10
2023-03-22T12:04:04.280Z,6.40
2023-03-22T12:06:36.804Z,6.30
2023-03-22T12:09:22.428Z,5.60
2023-03-22T12:11:55.128Z,5.70
2023-03-22T12:14:40.443Z,4.80
2023-03-22T12:17:17.042Z,5.10
2023-03-22T12:20:24.236Z,3.60
2023-03-22T12:22:56.035Z,6.30
2023-03-22T12:25:36.347Z,5.80
2023-03-22T12:28:11.045Z,5.00
2023-03-22T12:30:49.541Z,5.90
2023-03-22T12:33:33.139Z,7.30
2023-03-22T12:36:04.498Z,9.30
2023-03-22T12:38:46.407Z,6.90
2023-03-22T12:41:25.389Z,6.10
2023-03-22T12:44:09.709Z,5.40
2023-03-22T12:46:51.736Z,6.20
2023-03-22T12:49:26.675Z,6.20
2023-03-22T12:52:11.393Z,5.00
2023-03-22T12:54:40.897Z,5.80
2023-03-22T12:57:10.989Z,5.80
2023-03-22T12:59:44.567Z,6.30
2023-03-22T13:02:27.552Z,5.20
2023-03-22T13:05:09.669Z,7.10
2023-03-22T13:07:48.271Z,6.90
2023-03-22T13:10:41.010Z,4.10
2023-03-22T13:13:21.306Z,4.90
2023-03-22T13:16:11.345Z,5.50
2023-03-22T13:18:42.558Z,5.90
2023-03-22T13:21:27.033Z,4.50
2023-03-22T13:24:10.570Z,6.60
2023-03-22T13:26:47.681Z,6.40
2023-03-22T13:29:25.237Z,7.20
2023-03-22T13:32:01.245Z,6.80
2023-03-22T13:34:32.137Z,6.70
2023-03-22T13:37:01.851Z,6.20
2023-03-22T13:39:34.991Z,5.70
2023-03-22T13:42:08.758Z,6.20
2023-03-22T13:44:40.050Z,4.80
2023-03-22T13:47:29.696Z,5.20
2023-03-22T13:50:17.191Z,5.30
2023-03-22T13:53:00.234Z,5.20
2023-03-22T13:55:42.022Z,5.10
2023-03-22T13:58:36.352Z,5.10
2023-03-22T14:01:09.252Z,4.50
2023-03-22T14:03:42.292Z,6.40
2023-03-22T14:06:19.206Z,8.70
2023-03-22T14:08:51.917Z,6.70
2023-03-22T14:11:26.416Z,5.10
2023-03-22T14:14:01.617Z,4.50
2023-03-22T14:17:02.361Z,5.90
2023-03-22T14:19:33.431Z,5.00
